Skip Navigation Links
NOAA logo - Click to go to the NOAA homepage
NOAA's National Weather Service
Alaska Aviation Weather Unit
  NWS logo - Click to go to the NWS homepage
Left Navbar Graphic     15 AKDT = 23 GMT

   
NOAA is celebrating 200 years of science, service, and stewardship. Visit the NOAA 200th celebration Web site to learn more.
USA.gov is the U.S. Government's official Web portal to all Federal, state and local government Web resources and services.
Facebook
NWS on Facebook

AAWU Home :: Display TAF Add Bookmark
TAF PAYA 282340Z 2900/2924 24006KT P6SM VCSH SCT030 OVC050
      TEMPO 2900/2904 -SHRA OVC030
     FM290600 08002KT P6SM VCSH SCT015 OVC030
     FM291200 VRB05KT P6SM BKN060
      AMD LTD TO CLD VIS AND WIND 2901/2909=
PAYA 281709Z AUTO 11003KT 10SM BKN007 BKN022 OVC033 07/06 A3018=

PAYA 281735Z AUTO 15003KT 10SM -RA SCT007 SCT011 OVC023 07/06
A3018=

METAR PAYA 281753Z AUTO 17004KT 10SM -RA BKN009 BKN015 OVC022 08/06
     A3019 RMK AO2 RAE06B30 CIG 008V012 SLP222 P0001 60028
     T00780056 10078 20056 51009 TSNO $=

PAYA 281804Z AUTO 18006KT 10SM BKN010 BKN015 OVC038 08/06 A3019=

PAYA 281818Z AUTO 18005KT 10SM -RA SCT010 BKN025 OVC042 08/06
A3019=

METAR PAYA 281853Z AUTO 21005KT 9SM -RA FEW010 OVC020 07/06 A3020 RMK
     AO2 RAE03B18 SLP226 P0000 T00720056 TSNO $=

PAYA 281943Z AUTO 22004KT 10SM SCT009 BKN014 OVC020 08/06 A3021=

METAR PAYA 281953Z AUTO 23006KT 10SM BKN009 BKN016 OVC025 08/06 A3021
     RMK AO2 RAE1858 CIG 007V013 SLP230 P0000 T00780061 TSNO $=

PAYA 282011Z AUTO 24007KT 10SM SCT009 BKN016 OVC026 08/06 A3021=

METAR PAYA 282053Z AUTO 24007KT 10SM -RA BKN010 BKN027 OVC047 08/06
 A3022 RMK AO2 RAB35 SLP234 P0000 60000 T00780056 51008 TSNO $=

PAYA 282100Z AUTO 25006KT 10SM -RA SCT010 BKN031 OVC045 08/06
A3022=

PAYA 282113Z AUTO 26007KT 10SM -RA SCT010 BKN019 OVC043 08/06
A3022=

METAR PAYA 282153Z AUTO 25006KT 10SM -RA FEW013 BKN027 OVC043 08/06
 A3023 RMK AO2 SLP237 P0000 T00780056 TSNO $=

PAYA 282209Z AUTO 25009KT 10SM -RA FEW013 BKN045 OVC055 08/06
A3023=

METAR PAYA 282253Z AUTO 25007KT FEW012 BKN050 OVC060 08/06 A3023 RMK AO2
     RAE42 SLP238 P0000 T00780056 TSNO $=

PAYA 282345Z AUTO 25006KT SCT017 BKN023 OVC060 08/04 A3024=


NOAA's National Weather Service
Alaska Aviation Weather Unit
6930 Sand Lake Road
Anchorage, AK 99502-1845
Disclaimer
Credits
Glossary
Privacy Policy
About Us
Career Opportunities
Contact AAWU Internet Services Site last modified: April, 17th 2012